createdAt,value
2018-08-10T00:00:23.522Z,1.43
2018-08-10T00:05:27.441Z,1.47
2018-08-10T00:10:31.084Z,1.20
2018-08-10T00:15:35.451Z,1.97
2018-08-10T00:20:39.281Z,2.40
2018-08-10T00:25:42.789Z,3.20
2018-08-10T00:30:46.419Z,4.20
2018-08-10T00:35:49.946Z,3.30
2018-08-10T00:40:54.433Z,3.47
2018-08-10T00:45:57.952Z,3.60
2018-08-10T00:51:01.728Z,2.60
2018-08-10T00:56:05.340Z,2.17
2018-08-10T01:01:08.978Z,2.33
2018-08-10T01:06:12.601Z,2.37
2018-08-10T01:11:16.863Z,2.60
2018-08-10T01:16:20.388Z,2.30
2018-08-10T01:21:23.951Z,1.70
2018-08-10T01:26:27.604Z,1.60
2018-08-10T01:31:31.276Z,2.00
2018-08-10T01:36:35.039Z,1.97
2018-08-10T01:41:38.906Z,1.80
2018-08-10T01:46:42.431Z,2.10
2018-08-10T01:51:46.122Z,1.43
2018-08-10T01:56:49.787Z,1.50
2018-08-10T02:01:54.271Z,1.30
2018-08-10T02:06:57.867Z,2.00
2018-08-10T02:12:01.393Z,1.80
2018-08-10T02:17:05.110Z,1.87
2018-08-10T02:22:08.677Z,1.90
2018-08-10T02:27:12.287Z,1.60
2018-08-10T02:32:16.509Z,1.87
2018-08-10T02:37:20.032Z,2.13
2018-08-10T02:42:23.656Z,2.63
2018-08-10T02:47:27.235Z,2.67
2018-08-10T02:52:31.023Z,2.43
2018-08-10T02:57:34.542Z,2.43
2018-08-10T03:02:38.138Z,2.30
2018-08-10T03:07:42.313Z,2.77
2018-08-10T03:12:45.892Z,2.77
2018-08-10T03:17:49.554Z,2.67
2018-08-10T03:22:53.172Z,2.40
2018-08-10T03:27:56.769Z,1.93
2018-08-10T03:33:00.631Z,2.07
2018-08-10T03:38:04.552Z,1.80
2018-08-10T03:43:08.205Z,1.60
2018-08-10T03:48:11.786Z,2.10
2018-08-10T03:53:15.801Z,1.27
2018-08-10T03:58:19.451Z,1.80
2018-08-10T04:03:23.177Z,2.00
2018-08-10T04:08:26.704Z,2.90
2018-08-10T04:13:30.934Z,2.10
2018-08-10T04:18:34.762Z,3.07
2018-08-10T04:23:38.511Z,2.53
2018-08-10T04:28:42.027Z,3.13
2018-08-10T04:33:45.631Z,2.73
2018-08-10T04:38:56.448Z,3.90
2018-08-10T04:44:00.142Z,3.70
2018-08-10T04:49:04.373Z,3.63
2018-08-10T04:54:07.856Z,5.00
2018-08-10T04:59:11.437Z,3.87
2018-08-10T05:04:15.397Z,3.43
2018-08-10T05:09:18.981Z,3.17
2018-08-10T05:14:22.612Z,3.07
2018-08-10T05:19:26.205Z,3.80
2018-08-10T05:24:29.834Z,3.30
2018-08-10T05:29:33.498Z,3.90
2018-08-10T05:34:36.993Z,3.90
2018-08-10T05:39:40.615Z,3.90
2018-08-10T05:44:44.135Z,3.43
2018-08-10T05:49:47.884Z,4.03
2018-08-10T05:54:51.430Z,3.47
2018-08-10T05:59:55.026Z,3.90
2018-08-10T06:04:58.622Z,3.90
2018-08-10T06:10:02.350Z,3.40
2018-08-10T06:15:07.393Z,3.67
2018-08-10T06:20:11.943Z,4.53
2018-08-10T06:25:16.237Z,3.70
2018-08-10T06:30:29.415Z,3.40
2018-08-10T06:35:32.988Z,4.17
2018-08-10T06:40:36.778Z,3.97
2018-08-10T06:45:40.313Z,4.53
2018-08-10T06:50:44.142Z,3.30
2018-08-10T06:55:47.678Z,3.57
2018-08-10T07:00:51.224Z,2.83
2018-08-10T07:05:54.744Z,2.70
2018-08-10T07:11:35.982Z,2.63
2018-08-10T07:16:39.597Z,2.47
2018-08-10T07:21:43.172Z,2.47
2018-08-10T07:26:46.726Z,2.77
2018-08-10T07:31:50.586Z,2.27
2018-08-10T07:36:54.195Z,1.97
2018-08-10T07:41:58.271Z,2.60
2018-08-10T07:47:01.768Z,1.83
2018-08-10T07:52:05.609Z,1.97
2018-08-10T07:57:09.327Z,2.73
2018-08-10T08:02:13.323Z,2.60
2018-08-10T08:07:16.875Z,2.73
2018-08-10T08:12:20.510Z,2.90
2018-08-10T08:17:24.073Z,2.60
2018-08-10T08:22:27.776Z,2.90
2018-08-10T08:27:31.411Z,2.53
2018-08-10T08:32:35.645Z,2.20
2018-08-10T08:37:39.408Z,2.43
2018-08-10T08:42:44.696Z,2.10
2018-08-10T08:47:50.914Z,1.83
2018-08-10T08:52:54.567Z,1.40
2018-08-10T08:57:58.158Z,1.50
2018-08-10T09:03:01.954Z,2.00
2018-08-10T09:08:07.106Z,2.13
2018-08-10T09:13:10.736Z,2.00
2018-08-10T09:18:14.634Z,1.63
2018-08-10T09:23:18.579Z,2.53
2018-08-10T09:28:22.174Z,2.20
2018-08-10T09:33:25.856Z,2.23
2018-08-10T09:38:29.602Z,2.17
2018-08-10T09:43:34.582Z,2.07
2018-08-10T09:48:38.174Z,1.90
2018-08-10T09:53:42.048Z,2.83
2018-08-10T09:58:45.794Z,2.07
2018-08-10T10:03:49.718Z,1.93
2018-08-10T10:08:53.417Z,2.93
2018-08-10T10:13:56.997Z,2.77
2018-08-10T10:19:00.549Z,1.67
2018-08-10T10:24:04.142Z,1.80
2018-08-10T10:29:07.736Z,1.80
2018-08-10T10:34:11.519Z,2.27
2018-08-10T10:39:15.255Z,2.03
2018-08-10T10:44:18.816Z,1.70
2018-08-10T10:49:22.503Z,1.67
2018-08-10T10:54:26.248Z,2.33
2018-08-10T10:59:29.872Z,1.90
2018-08-10T11:04:33.506Z,1.50
2018-08-10T11:09:37.292Z,1.90
2018-08-10T11:14:40.882Z,1.70
2018-08-10T11:19:44.536Z,1.63
2018-08-10T11:24:48.184Z,1.20
2018-08-10T11:29:51.745Z,2.37
2018-08-10T11:34:55.411Z,1.67
2018-08-10T11:39:58.945Z,2.33
2018-08-10T11:45:02.941Z,1.37
2018-08-10T11:50:06.888Z,1.33
2018-08-10T11:55:12.495Z,2.17
2018-08-10T12:00:17.771Z,1.03
2018-08-10T12:05:21.386Z,1.40
2018-08-10T12:10:24.873Z,1.30
2018-08-10T12:15:28.508Z,1.30
2018-08-10T12:20:32.094Z,1.27
2018-08-10T12:25:35.678Z,1.60
2018-08-10T12:30:40.091Z,1.83
2018-08-10T12:35:44.722Z,1.10
2018-08-10T12:40:48.189Z,1.47
2018-08-10T12:45:51.891Z,1.43
2018-08-10T12:50:55.517Z,1.20
2018-08-10T12:55:59.135Z,1.67
2018-08-10T13:01:08.558Z,0.97
2018-08-10T13:06:12.325Z,1.00
2018-08-10T13:11:15.966Z,0.73
2018-08-10T13:16:19.977Z,1.57
2018-08-10T13:21:23.480Z,1.67
2018-08-10T13:26:27.711Z,0.83
2018-08-10T13:31:31.336Z,1.17
2018-08-10T13:36:34.992Z,1.57
2018-08-10T13:41:38.963Z,1.27
2018-08-10T13:46:42.634Z,1.67
2018-08-10T13:51:46.291Z,1.20
2018-08-10T13:56:50.038Z,1.30
2018-08-10T14:01:54.528Z,1.63
2018-08-10T14:06:58.358Z,1.20
2018-08-10T14:12:02.668Z,1.43
2018-08-10T14:17:06.266Z,1.10
2018-08-10T14:22:09.990Z,1.63
2018-08-10T14:27:13.608Z,1.37
2018-08-10T14:32:17.484Z,1.17
2018-08-10T14:37:21.082Z,1.57
2018-08-10T14:42:25.312Z,1.77
2018-08-10T14:47:29.133Z,1.03
2018-08-10T14:52:32.762Z,1.17
2018-08-10T14:57:36.477Z,1.37
2018-08-10T15:02:40.223Z,1.50
2018-08-10T15:07:44.254Z,1.10
2018-08-10T15:12:48.551Z,0.80
2018-08-10T15:17:52.607Z,1.17
2018-08-10T15:22:56.138Z,2.03
2018-08-10T15:27:59.736Z,1.43
2018-08-10T15:33:03.326Z,1.17
2018-08-10T15:38:07.253Z,1.10
2018-08-10T15:43:10.807Z,1.63
2018-08-10T15:48:14.705Z,1.40
2018-08-10T15:53:18.231Z,1.87
2018-08-10T15:58:21.902Z,1.37
2018-08-10T16:03:25.527Z,1.17
2018-08-10T16:08:29.183Z,2.00
2018-08-10T16:13:32.767Z,1.50
2018-08-10T16:18:37.305Z,1.20
2018-08-10T16:23:40.930Z,1.13
2018-08-10T16:28:44.520Z,1.47
2018-08-10T16:33:48.232Z,1.27
2018-08-10T16:38:51.863Z,1.17
2018-08-10T16:44:00.194Z,0.90
2018-08-10T16:49:04.763Z,1.17
2018-08-10T16:54:08.519Z,0.80
2018-08-10T16:59:12.603Z,1.03
2018-08-10T17:04:16.189Z,0.60
2018-08-10T17:09:20.702Z,1.17
2018-08-10T17:14:24.371Z,0.90
2018-08-10T17:19:36.212Z,1.10
2018-08-10T17:24:39.895Z,0.67
2018-08-10T17:29:43.476Z,1.10
2018-08-10T17:34:47.183Z,0.80
2018-08-10T17:39:50.746Z,0.70
2018-08-10T17:44:54.272Z,1.70
2018-08-10T17:49:58.038Z,1.07
2018-08-10T17:55:01.644Z,0.97
2018-08-10T18:00:06.906Z,0.83
2018-08-10T18:05:13.251Z,1.60
2018-08-10T18:10:18.371Z,1.00
2018-08-10T18:15:21.970Z,1.20
2018-08-10T18:20:26.207Z,1.30
2018-08-10T18:25:30.126Z,0.90
2018-08-10T18:30:33.716Z,1.03
2018-08-10T18:35:37.611Z,0.93
2018-08-10T18:40:41.250Z,1.10
2018-08-10T18:45:45.074Z,1.17
2018-08-10T18:50:49.044Z,1.07
2018-08-10T18:55:53.682Z,0.80
2018-08-10T19:00:57.449Z,1.30
2018-08-10T19:06:01.172Z,1.30
2018-08-10T19:11:05.720Z,1.00
2018-08-10T19:16:09.300Z,1.03
2018-08-10T19:21:13.084Z,0.90
2018-08-10T19:26:16.614Z,1.10
2018-08-10T19:31:20.348Z,1.30
2018-08-10T19:36:23.990Z,1.50
2018-08-10T19:41:27.589Z,1.00
2018-08-10T19:46:31.530Z,1.40
2018-08-10T19:51:35.355Z,1.40
2018-08-10T19:56:38.970Z,1.57
2018-08-10T20:01:46.654Z,2.50
2018-08-10T20:06:50.212Z,1.20
2018-08-10T20:11:54.104Z,1.50
2018-08-10T20:16:57.611Z,1.90
2018-08-10T20:22:01.255Z,1.63
2018-08-10T20:27:05.023Z,1.77
2018-08-10T20:32:08.827Z,1.33
2018-08-10T20:37:12.501Z,1.33
2018-08-10T20:42:16.169Z,1.20
2018-08-10T20:47:20.297Z,1.80
2018-08-10T20:52:23.885Z,2.13
2018-08-10T20:57:27.471Z,1.13
2018-08-10T21:02:31.568Z,1.43
2018-08-10T21:07:35.255Z,1.10
2018-08-10T21:12:39.348Z,0.97
2018-08-10T21:17:43.812Z,1.87
2018-08-10T21:22:47.583Z,0.83
2018-08-10T21:27:51.219Z,0.90
2018-08-10T21:32:54.811Z,1.40
2018-08-10T21:37:58.345Z,0.87
2018-08-10T21:43:01.887Z,0.90
2018-08-10T21:48:05.527Z,1.13
2018-08-10T21:53:10.255Z,1.23
2018-08-10T21:58:13.995Z,1.10
2018-08-10T22:03:17.925Z,0.90
2018-08-10T22:08:22.457Z,1.33
2018-08-10T22:13:31.471Z,0.70
2018-08-10T22:18:40.283Z,0.87
2018-08-10T22:23:43.861Z,1.40
2018-08-10T22:28:47.442Z,1.07
2018-08-10T22:33:51.384Z,0.77
2018-08-10T22:38:57.663Z,1.10
2018-08-10T22:44:01.415Z,1.00
2018-08-10T22:49:04.999Z,0.90
2018-08-10T22:54:09.027Z,0.83
2018-08-10T22:59:12.700Z,1.10
2018-08-10T23:04:16.461Z,0.80
2018-08-10T23:09:20.111Z,0.83
2018-08-10T23:14:23.732Z,1.13
2018-08-10T23:19:27.311Z,1.00
2018-08-10T23:24:30.917Z,0.63
2018-08-10T23:29:34.549Z,1.23
2018-08-10T23:34:38.144Z,0.90
2018-08-10T23:39:41.928Z,0.70
2018-08-10T23:44:46.255Z,1.03
2018-08-10T23:49:50.024Z,1.00
2018-08-10T23:54:53.666Z,1.17
2018-08-10T23:59:57.646Z,1.00
